Flight Track Log - Related Links

Times and Time Zones

All times are in EDT time to prevent confusion due to time zone crossing. See the SIA325 flight status page for this flight to view local times or setup timezone preferences in your user account.

Time Position Orientation Groundspeed Altitude Reporting Facility
EDT Latitude Longitude Course Direction KTS MPH feet Rate Location/Type
Tue 04:45:52 PM 49.9620 8.5380 134° Southeast 213 245 2,800  Level FlightAware ADS-B
Tue 04:46:07 PM 49.9540 8.5560 125° Southeast 214 246 3,400 1,800 Climbing FlightAware ADS-B
Tue 04:46:32 PM 49.9420 8.5930 117° Southeast 243 280 4,000 1,745 Climbing FlightAware ADS-B
Tue 04:47:02 PM 49.9250 8.6430 118° Southeast 276 318 5,000 2,291 Climbing FlightAware ADS-B
Tue 04:47:27 PM 49.9100 8.6880 117° Southeast 282 325 6,100 2,250 Climbing FlightAware ADS-B
Tue 04:47:42 PM 49.8990 8.7180 120° Southeast 305 351 6,500 1,950 Climbing FlightAware ADS-B
Tue 04:48:07 PM 49.8810 8.7680 119° Southeast 326 375 7,400 2,291 Climbing FlightAware ADS-B
Tue 04:48:37 PM 49.8580 8.8310 120° Southeast 341 392 8,600 2,200 Climbing FlightAware ADS-B
Tue 04:49:07 PM 49.8460 8.9020 105° East 374 430 9,600 2,229 Climbing FlightAware ADS-B
Tue 04:49:47 PM 49.8530 9.0140 84° East 396 456 11,200 2,475 Climbing FlightAware ADS-B
Tue 04:50:27 PM 49.8620 9.1290 83° East 412 474 12,900 2,824 Climbing FlightAware ADS-B
Tue 04:51:12 PM 49.8730 9.2590 82° East 411 473 15,200 2,753 Climbing FlightAware ADS-B
Tue 04:51:52 PM 49.8810 9.3790 84° East 419 482 16,800 2,329 Climbing FlightAware ADS-B
Tue 04:52:37 PM 49.8910 9.5100 83° East 423 487 18,500 2,259 Climbing FlightAware ADS-B
Tue 04:53:17 PM 49.8990 9.6320 84° East 429 494 20,000 1,875 Climbing FlightAware ADS-B
Tue 04:53:57 PM 49.9090 9.7610 83° East 451 519 21,000 1,333 Climbing FlightAware ADS-B
Tue 04:54:47 PM 49.9200 9.9250 84° East 465 535 22,000 1,350 Climbing FlightAware ADS-B
Tue 04:55:17 PM 49.9260 10.0100 84° East 468 539 22,800 1,520 Climbing FlightAware ADS-B
Tue 04:56:02 PM 49.9370 10.1630 84° East 482 555 23,900 1,642 Climbing FlightAware ADS-B
Tue 04:56:52 PM 49.9490 10.3450 84° East 494 568 25,400 1,725 Climbing FlightAware ADS-B
Tue 04:57:22 PM 49.9560 10.4560 84° East 499 574 26,200 1,482 Climbing FlightAware ADS-B
Tue 04:58:17 PM 49.9690 10.6670 84° East 514 592 27,500 1,453 Climbing FlightAware ADS-B
Tue 04:58:57 PM 49.9780 10.8130 84° East 521 600 28,500 1,425 Climbing FlightAware ADS-B
Tue 04:59:37 PM 49.9870 10.9630 85° East 528 608 29,400 1,624 Climbing FlightAware ADS-B
Tue 05:00:22 PM 49.9970 11.1320 85° East 525 604 30,800 1,129 Climbing FlightAware ADS-B
Tue 05:01:02 PM 50.0060 11.2830 85° East 520 598 31,000 141 Climbing FlightAware ADS-B
Tue 05:01:47 PM 50.0160 11.4510 85° East 518 596 31,000  Level FlightAware ADS-B
Tue 05:02:27 PM 50.0240 11.5990 85° East 517 595 31,000  Level FlightAware ADS-B
Tue 05:03:07 PM 50.0320 11.7460 85° East 517 595 31,000  Level FlightAware ADS-B
Tue 05:03:52 PM 50.0410 11.9110 85° East 517 595 31,000  Level FlightAware ADS-B
Tue 05:04:32 PM 50.0480 12.0610 86° East 516 594 31,000  Level FlightAware ADS-B
Tue 05:05:12 PM 50.0550 12.2030 86° East 515 593 31,000  Level FlightAware ADS-B
Tue 05:05:57 PM 50.0620 12.3720 86° East 515 593 31,000  Level FlightAware ADS-B
Tue 05:06:37 PM 50.0650 12.5220 88° East 516 594 31,000  Level FlightAware ADS-B
Tue 05:07:22 PM 50.0670 12.6830 89° East 515 593 31,000  Level FlightAware ADS-B
Tue 05:08:02 PM 50.0660 12.8350 91° East 514 592 31,000  Level FlightAware ADS-B
Tue 05:08:42 PM 50.0660 12.9800 90° East 514 592 31,000  Level FlightAware ADS-B
Tue 05:09:27 PM 50.0650 13.1480 90° East 514 592 31,000  Level FlightAware ADS-B
Tue 05:10:07 PM 50.0640 13.2940 91° East 515 593 31,000  Level FlightAware ADS-B
Tue 05:10:52 PM 50.0630 13.4570 90° East 516 594 31,000  Level FlightAware ADS-B
Tue 05:11:32 PM 50.0620 13.6120 91° East 516 594 31,000  Level FlightAware ADS-B
Tue 05:12:17 PM 50.0610 13.7700 91° East 515 593 31,000  Level FlightAware ADS-B
Tue 05:12:57 PM 50.0590 13.9310 91° East 514 592 31,000  Level FlightAware ADS-B
Tue 05:13:37 PM 50.0580 14.0750 91° East 514 592 31,000  Level FlightAware ADS-B
Tue 05:14:22 PM 50.0560 14.2410 91° East 513 590 31,000  Level FlightAware ADS-B
Tue 05:14:57 PM 50.0540 14.3680 91° East 511 588 31,000  Level FlightAware ADS-B
Tue 05:15:42 PM 50.0520 14.5330 91° East 509 586 31,000  Level FlightAware ADS-B
Tue 05:16:27 PM 50.0490 14.6910 92° East 509 586 31,000  Level FlightAware ADS-B
Tue 05:17:07 PM 50.0470 14.8400 91° East 508 585 31,000  Level FlightAware ADS-B
Tue 05:17:52 PM 50.0440 15.0040 92° East 508 585 31,000  Level FlightAware ADS-B
Tue 05:18:32 PM 50.0410 15.1590 92° East 507 583 31,000  Level FlightAware ADS-B
Tue 05:19:12 PM 50.0380 15.2980 92° East 507 583 31,000  Level FlightAware ADS-B
Tue 05:19:57 PM 50.0340 15.4650 92° East 505 581 31,000  Level FlightAware ADS-B
Tue 05:20:37 PM 50.0300 15.6110 92° East 503 579 31,000  Level FlightAware ADS-B
Tue 05:21:17 PM 50.0270 15.7540 92° East 503 579 31,000  Level FlightAware ADS-B
Tue 05:22:02 PM 50.0230 15.9090 92° East 503 579 31,000  Level FlightAware ADS-B
Tue 05:22:42 PM 50.0190 16.0580 92° East 502 578 31,000  Level FlightAware ADS-B
Tue 05:23:27 PM 50.0140 16.2170 93° East 502 578 31,000  Level FlightAware ADS-B
Tue 05:24:07 PM 50.0100 16.3610 92° East 501 577 31,000  Level FlightAware ADS-B
Tue 05:24:47 PM 50.0050 16.5050 93° East 499 574 31,000  Level FlightAware ADS-B
Tue 05:25:32 PM 50.0000 16.6720 93° East 499 574 31,000  Level FlightAware ADS-B
Tue 05:26:12 PM 49.9950 16.8150 93° East 497 572 31,000  Level FlightAware ADS-B
Tue 05:26:57 PM 49.9890 16.9710 93° East 496 571 31,000  Level FlightAware ADS-B
Tue 05:27:37 PM 49.9840 17.1150 93° East 495 570 31,000  Level FlightAware ADS-B
Tue 05:28:22 PM 49.9780 17.2630 94° East 493 567 31,000  Level FlightAware ADS-B
Tue 05:29:02 PM 49.9720 17.4110 94° East 492 566 31,000  Level FlightAware ADS-B
Tue 05:29:42 PM 49.9660 17.5520 94° East 491 565 31,000  Level FlightAware ADS-B
Tue 05:30:27 PM 49.9600 17.7160 93° East 491 565 31,000  Level FlightAware ADS-B
Tue 05:31:07 PM 49.9540 17.8540 94° East 485 558 31,000  Level FlightAware ADS-B
Tue 05:31:52 PM 49.9470 17.9990 94° East 485 558 31,000  Level FlightAware ADS-B
Tue 05:32:32 PM 49.9400 18.1480 94° East 484 557 31,000  Level FlightAware ADS-B
Tue 05:33:12 PM 49.9350 18.2850 93° East 483 556 31,000  Level FlightAware ADS-B
Tue 05:33:57 PM 49.9350 18.4370 90° East 482 555 31,000  Level FlightAware ADS-B
Tue 05:34:37 PM 49.9370 18.5700 89° East 483 556 31,000  Level FlightAware ADS-B
Tue 05:35:32 PM 49.9390 18.7660 89° East 487 560 31,000  Level FlightAware ADS-B
Tue 05:36:17 PM 49.9320 18.9270 94° East 492 566 31,000  Level FlightAware ADS-B
Tue 05:36:57 PM 49.9210 19.0670 97° East 495 570 31,000  Level FlightAware ADS-B
Tue 05:37:42 PM 49.9060 19.2200 99° East 497 572 31,000  Level FlightAware ADS-B
Tue 05:38:22 PM 49.8920 19.3620 99° East 497 572 31,000  Level FlightAware ADS-B
Tue 05:39:02 PM 49.8770 19.5030 99° East 497 572 31,000  Level FlightAware ADS-B
Tue 05:39:47 PM 49.8600 19.6620 99° East 496 571 31,000  Level FlightAware ADS-B
Tue 05:40:27 PM 49.8460 19.7950 99° East 494 568 31,000  Level FlightAware ADS-B
Tue 05:41:07 PM 49.8310 19.9340 99° East 494 568 31,000  Level FlightAware ADS-B
Tue 05:41:52 PM 49.8130 20.0960 100° East 492 566 31,000  Level FlightAware ADS-B
Tue 05:42:32 PM 49.7980 20.2350 99° East 491 565 31,000  Level FlightAware ADS-B
Tue 05:43:17 PM 49.7810 20.3850 100° East 492 566 31,000  Level FlightAware ADS-B
Tue 05:43:57 PM 49.7660 20.5220 100° East 491 565 31,000  Level FlightAware ADS-B
Tue 05:44:37 PM 49.7500 20.6610 100° East 490 564 31,000  Level FlightAware ADS-B
Tue 05:45:22 PM 49.7320 20.8190 100° East 485 558 31,000  Level FlightAware ADS-B
Tue 05:46:02 PM 49.7160 20.9560 100° East 484 557 31,000  Level FlightAware ADS-B
Tue 05:46:42 PM 49.7000 21.0910 100° East 483 556 31,000  Level FlightAware ADS-B
Tue 05:47:27 PM 49.6810 21.2490 100° East 487 560 31,000  Level FlightAware ADS-B
Tue 05:48:07 PM 49.6660 21.3800 100° East 485 558 31,000  Level FlightAware ADS-B
Tue 05:48:47 PM 49.6490 21.5160 101° East 487 560 31,000  Level FlightAware ADS-B
Tue 05:49:32 PM 49.6320 21.6590 100° East 486 559 31,000  Level FlightAware ADS-B
Tue 05:50:12 PM 49.6150 21.7960 101° East 482 555 31,000  Level FlightAware ADS-B
Tue 05:50:57 PM 49.5940 21.9580 101° East 478 550 31,000  Level FlightAware ADS-B
Tue 05:51:37 PM 49.5780 22.0920 100° East 480 552 31,000  Level FlightAware ADS-B
Tue 05:52:17 PM 49.5620 22.2190 101° East 485 558 31,000  Level FlightAware ADS-B
Tue 05:53:02 PM 49.5410 22.3780 101° East 485 558 31,000  Level FlightAware ADS-B
Tue 05:53:47 PM 49.5210 22.5280 102° East 478 550 31,000  Level FlightAware ADS-B
Tue 05:54:27 PM 49.5000 22.6610 104° East 478 550 31,000  Level FlightAware ADS-B
Tue 05:55:07 PM 49.4660 22.7870 113° Southeast 478 550 31,000  Level FlightAware ADS-B
Tue 05:55:52 PM 49.4250 22.9280 114° Southeast 475 547 31,000  Level FlightAware ADS-B
Tue 05:56:32 PM 49.3910 23.0440 114° Southeast 472 543 31,000  Level FlightAware ADS-B
Tue 05:57:12 PM 49.3550 23.1640 115° Southeast 463 533 31,000  Level FlightAware ADS-B
Tue 05:57:52 PM 49.3210 23.2770 115° Southeast 463 533 31,000  Level FlightAware ADS-B
Tue 05:58:37 PM 49.2790 23.4150 115° Southeast 462 532 31,000  Level FlightAware ADS-B
Tue 05:59:22 PM 49.2400 23.5450 115° Southeast 463 533 31,000  Level FlightAware ADS-B
Tue 06:00:02 PM 49.2040 23.6640 115° Southeast 463 533 31,000  Level FlightAware ADS-B
Tue 06:00:42 PM 49.1730 23.7660 115° Southeast 458 527 31,000  Level FlightAware ADS-B
Tue 06:01:22 PM 49.1330 23.8940 115° Southeast 455 524 31,000  Level FlightAware ADS-B
Tue 06:02:12 PM 49.0910 24.0330 115° Southeast 456 525 31,000  Level FlightAware ADS-B
Tue 06:02:52 PM 49.0530 24.1550 115° Southeast 457 526 31,000  Level FlightAware ADS-B
Tue 06:03:32 PM 49.0180 24.2680 115° Southeast 454 522 31,000  Level FlightAware ADS-B
Tue 06:04:17 PM 48.9790 24.3920 116° Southeast 450 518 31,000  Level FlightAware ADS-B
Tue 06:05:02 PM 48.9380 24.5200 116° Southeast 451 519 31,000  Level FlightAware ADS-B
Tue 06:05:42 PM 48.9030 24.6330 115° Southeast 452 520 31,000  Level FlightAware ADS-B
Tue 06:06:22 PM 48.8720 24.7510 112° Southeast 453 521 31,000  Level FlightAware ADS-B
Tue 06:07:07 PM 48.8420 24.8890 108° East 453 521 31,000  Level FlightAware ADS-B
Tue 06:07:47 PM 48.8170 25.0080 108° East 454 522 31,000  Level FlightAware ADS-B
Tue 06:08:27 PM 48.7900 25.1350 108° East 455 524 31,000  Level FlightAware ADS-B
Tue 06:09:12 PM 48.7620 25.2690 108° East 453 521 31,000  Level FlightAware ADS-B
Tue 06:09:52 PM 48.7360 25.3860 109° East 453 521 31,000  Level FlightAware ADS-B
Tue 06:10:27 PM 48.7110 25.5000 108° East 452 520 31,000  Level FlightAware ADS-B
Tue 06:11:07 PM 48.6840 25.6250 108° East 455 524 31,000  Level FlightAware ADS-B
Tue 06:12:02 PM 48.6480 25.7870 109° East 455 524 31,000  Level FlightAware ADS-B
Tue 06:12:57 PM 48.6120 25.9460 109° East 456 525 31,000  Level FlightAware ADS-B
Tue 06:13:37 PM 48.5850 26.0700 108° East 452 520 31,000  Level FlightAware ADS-B
Tue 06:14:17 PM 48.5570 26.1910 109° East 451 519 31,000  Level FlightAware ADS-B
Tue 06:15:02 PM 48.5290 26.3160 109° East 450 518 31,000  Level FlightAware ADS-B
Tue 06:15:42 PM 48.5000 26.4430 109° East 450 518 31,000  Level FlightAware ADS-B
Tue 06:16:27 PM 48.4710 26.5630 110° East 451 519 31,000  Level FlightAware ADS-B
Tue 06:17:07 PM 48.4280 26.6760 120° Southeast 452 520 31,000  Level FlightAware ADS-B
Tue 06:17:47 PM 48.3840 26.7920 120° Southeast 451 519 31,000  Level FlightAware ADS-B
Tue 06:18:32 PM 48.3360 26.9120 121° Southeast 454 522 31,000  Level FlightAware ADS-B
Tue 06:19:12 PM 48.2930 27.0200 121° Southeast 454 522 31,000  Level FlightAware ADS-B
Tue 06:19:52 PM 48.2490 27.1280 121° Southeast 454 522 31,000  Level FlightAware ADS-B
Tue 06:20:37 PM 48.2030 27.2400 122° Southeast 454 522 31,000  Level FlightAware ADS-B
Tue 06:21:22 PM 48.1580 27.3530 121° Southeast 454 522 31,000  Level FlightAware ADS-B
Tue 06:21:57 PM 48.1130 27.4600 122° Southeast 451 519 31,000  Level FlightAware ADS-B
Tue 06:22:42 PM 48.0720 27.5620 121° Southeast 451 519 31,000  Level FlightAware ADS-B
Tue 06:23:42 PM 47.9980 27.7360 122° Southeast 450 518 31,000  Level FlightAware ADS-B
Tue 06:24:22 PM 47.9550 27.8400 122° Southeast 450 518 31,000  Level FlightAware ADS-B
Tue 06:25:02 PM 47.9120 27.9430 122° Southeast 450 518 31,000  Level FlightAware ADS-B
Tue 06:25:42 PM 47.8640 28.0550 123° Southeast 451 519 31,000  Level FlightAware ADS-B
Tue 06:26:27 PM 47.8180 28.1650 122° Southeast 451 519 31,000  Level FlightAware ADS-B
Tue 06:27:07 PM 47.7810 28.2540 122° Southeast 451 519 31,000  Level FlightAware ADS-B
Tue 06:27:52 PM 47.7200 28.3950 123° Southeast 457 526 31,000  Level FlightAware ADS-B
Tue 06:28:27 PM 47.6840 28.4810 122° Southeast 457 526 31,000  Level FlightAware ADS-B
Tue 06:29:07 PM 47.6450 28.5720 122° Southeast 457 526 31,000  Level FlightAware ADS-B
Tue 06:29:57 PM 47.5980 28.6850 122° Southeast 457 526 31,000  Level FlightAware ADS-B
Tue 06:30:37 PM 47.5600 28.7750 122° Southeast 457 526 31,000  Level FlightAware ADS-B
Tue 06:31:17 PM 47.5220 28.8660 122° Southeast 457 526 31,000  Level FlightAware ADS-B
Tue 06:31:57 PM 47.4840 28.9560 122° Southeast 457 526 31,000  Level FlightAware ADS-B
Tue 06:32:37 PM 47.4450 29.0460 123° Southeast 457 526 31,000 1,043 Level FlightAware ADS-B
Tue 06:33:52 PM 47.3440 29.2600 125° Southeast 471 542 33,000 1,000 Climbing FlightAware ADS-B
Tue 06:34:37 PM 47.2430 29.4890 123° Southeast 474 545 33,000  Level FlightAware ADS-B
Tue 06:35:12 PM 47.2040 29.5760 123° Southeast 474 545 33,000  Level FlightAware ADS-B
Tue 06:35:57 PM 47.1560 29.6820 124° Southeast 476 548 33,000  Level FlightAware ADS-B
Tue 06:36:37 PM 47.0980 29.8110 123° Southeast 475 547 33,000  Level FlightAware ADS-B
Tue 06:37:27 PM 47.0370 29.9460 124° Southeast 473 544 33,000  Level FlightAware ADS-B
Tue 06:38:07 PM 46.9910 30.0490 123° Southeast 474 545 33,000  Level FlightAware ADS-B
Tue 06:38:47 PM 46.9410 30.1620 123° Southeast 472 543 33,000  Level FlightAware ADS-B
Tue 06:39:22 PM 46.9100 30.2530 116° Southeast 471 542 33,000  Level FlightAware ADS-B
Tue 06:40:12 PM 46.8610 30.3910 117° Southeast 470 541 33,000  Level FlightAware ADS-B
Tue 06:41:02 PM 46.8130 30.5230 118° Southeast 468 539 33,000  Level FlightAware ADS-B
Tue 06:41:52 PM 46.7600 30.6660 118° Southeast 471 542 33,000  Level FlightAware ADS-B
Tue 06:42:32 PM 46.7120 30.7930 119° Southeast 477 549 33,000  Level FlightAware ADS-B
Tue 06:43:17 PM 46.6650 30.9190 118° Southeast 478 550 33,000  Level FlightAware ADS-B
Tue 06:44:02 PM 46.6190 31.0460 118° Southeast 476 548 33,000  Level FlightAware ADS-B
Tue 06:44:47 PM 46.5800 31.1570 117° Southeast 476 548 33,000  Level FlightAware ADS-B
Tue 06:45:47 PM 46.5140 31.3320 119° Southeast 475 547 33,000  Level FlightAware ADS-B
Tue 06:46:32 PM 46.4630 31.4680 119° Southeast 468 539 33,000  Level FlightAware ADS-B
Tue 06:47:12 PM 46.4220 31.5780 118° Southeast 469 540 33,000  Level FlightAware ADS-B
Tue 06:47:57 PM 46.3750 31.7030 119° Southeast 469 540 33,000  Level FlightAware ADS-B
Tue 06:48:32 PM 46.3430 31.7900 118° Southeast 469 540 33,000  Level FlightAware ADS-B
Tue 06:49:17 PM 46.3070 31.8830 119° Southeast 470 541 33,000  Level FlightAware ADS-B
Tue 06:50:02 PM 46.2610 32.0050 119° Southeast 473 544 33,000  Level FlightAware ADS-B
Tue 06:50:37 PM 46.2220 32.1080 119° Southeast 474 545 33,000  Level FlightAware ADS-B
Tue 06:51:22 PM 46.1730 32.2350 119° Southeast 476 548 33,000  Level FlightAware ADS-B
Tue 06:51:57 PM 46.1410 32.3200 118° Southeast 476 548 33,000  Level FlightAware ADS-B
Tue 06:52:42 PM 46.0900 32.4500 119° Southeast 478 550 33,000  Level FlightAware ADS-B
Tue 06:53:32 PM 46.0390 32.5840 119° Southeast 476 548 33,000  Level FlightAware ADS-B
Tue 06:54:07 PM 46.0010 32.6810 119° Southeast 476 548 33,000  Level FlightAware ADS-B
Tue 06:54:57 PM 45.9460 32.8210 119° Southeast 477 549 33,000  Level FlightAware ADS-B
Tue 06:55:37 PM 45.9010 32.9370 119° Southeast 478 550 33,000  Level FlightAware ADS-B
Tue 06:56:32 PM 45.8430 33.0840 119° Southeast 475 547 33,000  Level FlightAware ADS-B
Tue 06:57:12 PM 45.8010 33.1910 119° Southeast 473 544 33,000  Level FlightAware ADS-B
Tue 06:57:52 PM 45.7570 33.3020 120° Southeast 474 545 33,000  Level FlightAware ADS-B
Tue 06:58:37 PM 45.7070 33.4270 120° Southeast 476 548 33,000  Level FlightAware ADS-B
Tue 06:59:22 PM 45.6600 33.5450 120° Southeast 477 549 33,000  Level FlightAware ADS-B
Tue 06:59:52 PM 45.6290 33.6220 120° Southeast 474 545 33,000  Level FlightAware ADS-B
Tue 07:00:42 PM 45.5750 33.7540 120° Southeast 472 543 33,000  Level FlightAware ADS-B
Tue 07:01:22 PM 45.5290 33.8660 120° Southeast 472 543 33,000  Level FlightAware ADS-B
Tue 07:02:07 PM 45.4790 33.9910 120° Southeast 472 543 33,000  Level FlightAware ADS-B
Tue 07:02:47 PM 45.4360 34.0960 120° Southeast 473 544 33,000  Level FlightAware ADS-B
Tue 07:03:27 PM 45.3920 34.2020 121° Southeast 473 544 33,000  Level FlightAware ADS-B
Tue 07:04:17 PM 45.3390 34.3330 120° Southeast 472 543 33,000  Level FlightAware ADS-B
Tue 07:04:57 PM 45.2970 34.4330 121° Southeast 472 543 33,000  Level FlightAware ADS-B
Tue 07:05:37 PM 45.2320 34.5890 121° Southeast 470 541 33,000  Level FlightAware ADS-B
Tue 07:06:22 PM 45.1810 34.7120 120° Southeast 467 537 33,000  Level FlightAware ADS-B
Tue 07:07:02 PM 45.1370 34.8150 121° Southeast 466 536 33,000  Level FlightAware ADS-B
Tue 07:07:42 PM 45.0930 34.9210 120° Southeast 466 536 33,000  Level FlightAware ADS-B
Tue 07:08:27 PM 45.0440 35.0370 121° Southeast 466 536 33,000  Level FlightAware ADS-B
Tue 07:09:07 PM 44.9980 35.1430 122° Southeast 467 537 33,000  Level FlightAware ADS-B
Tue 07:09:52 PM 44.9480 35.2610 121° Southeast 469 540 33,000  Level FlightAware ADS-B
Tue 07:10:32 PM 44.9040 35.3640 121° Southeast 470 541 33,000  Level FlightAware ADS-B
Tue 07:11:17 PM 44.8540 35.4810 121° Southeast 468 539 33,000  Level FlightAware ADS-B
Tue 07:11:57 PM 44.8100 35.5830 121° Southeast 467 537 33,000  Level FlightAware ADS-B
Tue 07:12:37 PM 44.7630 35.6910 121° Southeast 468 539 33,000  Level FlightAware ADS-B
Tue 07:13:17 PM 44.7190 35.7930 121° Southeast 468 539 33,000  Level FlightAware ADS-B
Tue 07:14:02 PM 44.6670 35.9110 122° Southeast 469 540 33,000  Level FlightAware ADS-B
Tue 07:14:42 PM 44.6220 36.0150 121° Southeast 470 541 33,000  Level FlightAware ADS-B
Tue 07:15:27 PM 44.5710 36.1300 122° Southeast 473 544 33,000  Level FlightAware ADS-B
Tue 07:16:07 PM 44.5260 36.2330 121° Southeast 464 534 33,000  Level FlightAware ADS-B
Tue 07:16:52 PM 44.4740 36.3500 122° Southeast 460 529 33,000  Level FlightAware ADS-B
Tue 07:17:32 PM 44.4300 36.4490 122° Southeast 458 527 33,000  Level FlightAware ADS-B
Tue 07:18:12 PM 44.3860 36.5480 122° Southeast 455 524 33,000  Level FlightAware ADS-B
Tue 07:18:57 PM 44.3360 36.6600 122° Southeast 452 520 33,000  Level FlightAware ADS-B
Tue 07:19:37 PM 44.2930 36.7620 120° Southeast 451 519 33,000  Level FlightAware ADS-B
Tue 07:20:12 PM 44.2570 36.8490 120° Southeast 451 519 33,000  Level FlightAware ADS-B
Tue 07:21:02 PM 44.2100 36.9780 117° Southeast 448 516 33,000  Level FlightAware ADS-B
Tue 07:21:42 PM 44.1750 37.0820 115° Southeast 445 512 33,000  Level FlightAware ADS-B
Tue 07:22:27 PM 44.1340 37.1990 116° Southeast 445 512 33,000  Level FlightAware ADS-B
Tue 07:23:02 PM 44.1030 37.2890 116° Southeast 444 511 33,000  Level FlightAware ADS-B
Tue 07:23:57 PM 44.0600 37.4150 115° Southeast 443 510 33,000  Level FlightAware ADS-B
Tue 07:24:42 PM 44.0200 37.5300 116° Southeast 444 511 33,000  Level FlightAware ADS-B
Tue 07:25:27 PM 43.9800 37.6460 116° Southeast 449 517 33,000  Level FlightAware ADS-B
Tue 07:26:07 PM 43.9430 37.7520 116° Southeast 448 516 33,000  Level FlightAware ADS-B
Tue 07:26:47 PM 43.9070 37.8590 115° Southeast 449 517 33,000  Level FlightAware ADS-B
Tue 07:27:47 PM 43.8560 38.0050 116° Southeast 446 513 33,000  Level FlightAware ADS-B
Tue 07:28:27 PM 43.8150 38.1090 119° Southeast 445 512 33,000  Level FlightAware ADS-B
Tue 07:29:07 PM 43.7760 38.2080 119° Southeast 439 505 33,000  Level FlightAware ADS-B
Tue 07:29:52 PM 43.7330 38.3180 118° Southeast 432 497 33,000  Level FlightAware ADS-B
Tue 07:30:37 PM 43.6880 38.4230 121° Southeast 427 491 33,000  Level FlightAware ADS-B
Tue 07:31:17 PM 43.6410 38.5170 125° Southeast 428 493 33,000  Level FlightAware ADS-B
Tue 07:32:02 PM 43.5910 38.6170 125° Southeast 430 495 33,000  Level FlightAware ADS-B
Tue 07:32:42 PM 43.5450 38.7100 124° Southeast 432 497 33,000  Level FlightAware ADS-B
Tue 07:33:17 PM 43.5080 38.7820 125° Southeast 432 497 33,000  Level FlightAware ADS-B
Tue 07:34:07 PM 43.4520 38.8900 126° Southeast 429 494 33,000  Level FlightAware ADS-B
Tue 07:34:47 PM 43.4040 38.9830 125° Southeast 429 494 33,000  Level FlightAware ADS-B
Tue 07:35:22 PM 43.3620 39.0650 125° Southeast 428 493 33,000  Level FlightAware ADS-B
Tue 07:36:12 PM 43.3130 39.1800 120° Southeast 427 491 33,000  Level FlightAware ADS-B
Tue 07:37:07 PM 43.2640 39.3040 118° Southeast 426 490 33,000  Level FlightAware ADS-B
Tue 07:37:47 PM 43.2260 39.4010 118° Southeast 427 491 33,000  Level FlightAware ADS-B
Tue 07:38:32 PM 43.1830 39.5070 119° Southeast 426 490 33,000  Level FlightAware ADS-B
Tue 07:39:12 PM 43.1440 39.6030 119° Southeast 426 490 33,000  Level FlightAware ADS-B
Tue 07:39:52 PM 43.1060 39.6990 118° Southeast 426 490 33,000  Level FlightAware ADS-B
Tue 07:40:37 PM 43.0630 39.8040 119° Southeast 428 493 33,000  Level FlightAware ADS-B
Tue 07:41:22 PM 43.0200 39.9100 119° Southeast 426 490 33,000  Level FlightAware ADS-B
Tue 07:42:02 PM 42.9790 40.0060 120° Southeast 427 491 33,000  Level FlightAware ADS-B
Tue 07:42:42 PM 42.9380 40.0970 122° Southeast 426 490 33,000  Level FlightAware ADS-B
Tue 07:43:27 PM 42.8900 40.1980 123° Southeast 425 489 33,000  Level FlightAware ADS-B
Tue 07:44:02 PM 42.8560 40.2720 122° Southeast 424 488 33,000  Level FlightAware ADS-B
Tue 07:44:42 PM 42.8130 40.3640 122° Southeast 424 488 33,000  Level FlightAware ADS-B
Tue 07:45:32 PM 42.7610 40.4730 123° Southeast 423 487 33,000  Level FlightAware ADS-B
Tue 07:46:12 PM 42.7190 40.5630 122° Southeast 420 483 33,000  Level FlightAware ADS-B
Tue 07:46:52 PM 42.6750 40.6560 123° Southeast 419 482 33,000  Level FlightAware ADS-B
Tue 07:47:32 PM 42.6330 40.7450 123° Southeast 418 481 33,000  Level FlightAware ADS-B
Tue 07:48:17 PM 42.5860 40.8420 123° Southeast 420 483 33,000  Level FlightAware ADS-B
Tue 07:49:02 PM 42.5390 40.9410 123° Southeast 423 487 33,000  Level FlightAware ADS-B
Tue 07:49:42 PM 42.4960 41.0310 123° Southeast 424 488 33,000  Level FlightAware ADS-B
Tue 07:50:37 PM 42.4420 41.1430 123° Southeast 424 488 33,000  Level FlightAware ADS-B
Tue 07:51:17 PM 42.4060 41.2190 123° Southeast 424 488 33,000  Level FlightAware ADS-B
Tue 07:52:07 PM 42.3610 41.3130 123° Southeast 424 488 33,000  Level FlightAware ADS-B
Tue 07:52:47 PM 42.3240 41.3890 123° Southeast 424 488 33,000  Level FlightAware ADS-B
Tue 07:53:27 PM 42.2880 41.4640 123° Southeast 424 488 33,000  Level FlightAware ADS-B
Tue 07:54:07 PM 42.2520 41.5400 123° Southeast 424 488 33,000  Level FlightAware ADS-B
Tue 07:54:47 PM 42.2150 41.6160 123° Southeast 424 488 33,000  Level FlightAware ADS-B
Tue 07:55:27 PM 42.1790 41.6910 123° Southeast 424 488 33,000  Level FlightAware ADS-B
Tue 07:56:17 PM 42.1340 41.7850 123° Southeast 424 488 33,000  Level FlightAware ADS-B
Tue 07:56:57 PM 42.0970 41.8610 123° Southeast 424 488 33,000  Level FlightAware ADS-B
Tue 07:57:37 PM 42.0610 41.9360 123° Southeast 424 488 33,000  Level FlightAware ADS-B
Tue 07:58:17 PM 42.0250 42.0110 123° Southeast 424 488 33,000  Level FlightAware ADS-B
Tue 07:58:57 PM 41.9880 42.0870 123° Southeast 424 488 33,000  Level FlightAware ADS-B
Tue 07:59:47 PM 41.9430 42.1810 123° Southeast 424 488 33,000 12 Level FlightAware ADS-B
Tue 08:02:00 PM 41.8479 42.5560 109° East  Level Estimated
Tue 08:03:00 PM 41.8046 42.7248 109° East  Level Estimated
Tue 08:04:00 PM 41.7610 42.8934 109° East  Level Estimated
Tue 08:05:00 PM 41.7172 43.0617 109° East  Level Estimated
Tue 08:06:00 PM 41.6732 43.2298 109° East  Level Estimated
Tue 08:07:00 PM 41.6289 43.3977 109° East  Level Estimated
Tue 08:08:00 PM 41.5844 43.5653 110° East  Level Estimated
Tue 08:09:00 PM 41.5396 43.7328 110° East  Level Estimated
Tue 08:10:00 PM 41.4946 43.8999 110° East  Level Estimated
Tue 08:11:00 PM 41.4493 44.0669 110° East  Level Estimated
Tue 08:12:00 PM 41.4038 44.2336 110° East  Level Estimated
Tue 08:13:00 PM 41.3581 44.4001 110° East  Level Estimated
Tue 08:14:00 PM 41.3121 44.5664 110° East  Level Estimated
Tue 08:15:00 PM 41.2659 44.7324 110° East  Level Estimated
Tue 08:16:00 PM 41.2194 44.8982 110° East  Level Estimated
Tue 08:17:00 PM 41.1727 45.0637 110° East  Level Estimated
Tue 08:18:00 PM 41.1258 45.2290 111° Southeast  Level Estimated
Tue 08:19:00 PM 41.0786 45.3941 111° Southeast  Level Estimated
Tue 08:20:00 PM 41.0312 45.5589 111° Southeast  Level Estimated
Tue 08:21:00 PM 40.9836 45.7235 111° Southeast  Level Estimated
Tue 08:22:00 PM 40.9357 45.8879 111° Southeast  Level Estimated
Tue 08:23:00 PM 40.8876 46.0520 111° Southeast  Level Estimated
Tue 08:24:00 PM 40.8392 46.2159 111° Southeast  Level Estimated
Tue 08:25:00 PM 40.7907 46.3795 111° Southeast  Level Estimated
Tue 08:26:00 PM 40.7419 46.5429 111° Southeast  Level Estimated
Tue 08:27:00 PM 40.6928 46.7061 112° Southeast  Level Estimated
Tue 08:28:00 PM 40.6436 46.8690 112° Southeast  Level Estimated
Tue 08:29:00 PM 40.5941 47.0317 112° Southeast  Level Estimated
Tue 08:30:00 PM 40.5444 47.1941 112° Southeast  Level Estimated
Tue 08:31:00 PM 40.4944 47.3563 112° Southeast  Level Estimated
Tue 08:32:00 PM 40.4443 47.5183 112° Southeast  Level Estimated
Tue 08:33:00 PM 40.3939 47.6800 112° Southeast  Level Estimated
Tue 08:34:00 PM 40.3432 47.8415 112° Southeast  Level Estimated
Tue 08:35:00 PM 40.2924 48.0027 112° Southeast  Level Estimated
Tue 08:36:00 PM 40.2413 48.1637 113° Southeast  Level Estimated
Tue 08:37:00 PM 40.1900 48.3244 113° Southeast  Level Estimated
Tue 08:38:00 PM 40.1385 48.4849 113° Southeast  Level Estimated
Tue 08:39:00 PM 40.0868 48.6452 113° Southeast  Level Estimated
Tue 08:40:00 PM 40.0349 48.8052 113° Southeast  Level Estimated
Tue 08:41:00 PM 39.9827 48.9650 113° Southeast  Level Estimated
Tue 08:42:00 PM 39.9303 49.1245 113° Southeast  Level Estimated
Tue 08:43:00 PM 39.8777 49.2838 113° Southeast  Level Estimated
Tue 08:44:00 PM 39.8248 49.4428 113° Southeast  Level Estimated
Tue 08:45:00 PM 39.7718 49.6016 113° Southeast  Level Estimated
Tue 08:46:00 PM 39.7185 49.7601 114° Southeast  Level Estimated
Tue 08:47:00 PM 39.6651 49.9184 114° Southeast  Level Estimated
Tue 08:48:00 PM 39.6114 50.0765 114° Southeast  Level Estimated
Tue 08:49:00 PM 39.5575 50.2343 114° Southeast  Level Estimated
Tue 08:50:00 PM 39.5033 50.3918 114° Southeast  Level Estimated
Tue 08:51:00 PM 39.4490 50.5492 114° Southeast  Level Estimated
Tue 08:52:00 PM 39.3945 50.7062 114° Southeast  Level Estimated
Tue 08:53:00 PM 39.3397 50.8631 114° Southeast  Level Estimated
Tue 08:54:00 PM 39.2848 51.0196 114° Southeast  Level Estimated
Tue 08:55:00 PM 39.2296 51.1760 114° Southeast  Level Estimated
Tue 08:56:00 PM 39.1742 51.3321 115° Southeast  Level Estimated
Tue 08:57:00 PM 39.1186 51.4879 115° Southeast  Level Estimated
Tue 08:58:00 PM 39.0628 51.6435 115° Southeast  Level Estimated
Tue 08:59:00 PM 39.0068 51.7988 115° Southeast  Level Estimated
Tue 09:00:00 PM 38.9506 51.9539 115° Southeast  Level Estimated
Tue 09:01:00 PM 38.8942 52.1088 115° Southeast  Level Estimated
Tue 09:02:00 PM 38.8376 52.2634 115° Southeast  Level Estimated
Tue 09:03:00 PM 38.7808 52.4178 115° Southeast  Level Estimated
Tue 09:04:00 PM 38.7237 52.5719 115° Southeast  Level Estimated
Tue 09:05:00 PM 38.6665 52.7258 115° Southeast  Level Estimated
Tue 09:06:00 PM 38.6091 52.8794 116° Southeast  Level Estimated
Tue 09:07:00 PM 38.5514 53.0328 116° Southeast  Level Estimated
Tue 09:08:00 PM 38.4936 53.1859 116° Southeast  Level Estimated
Tue 09:09:00 PM 38.4356 53.3388 116° Southeast  Level Estimated
Tue 09:10:00 PM 38.3774 53.4914 116° Southeast  Level Estimated
Tue 09:11:00 PM 38.3189 53.6438 116° Southeast  Level Estimated
Tue 09:12:00 PM 38.2603 53.7960 116° Southeast  Level Estimated
Tue 09:13:00 PM 38.2015 53.9479 116° Southeast  Level Estimated
Tue 09:14:00 PM 38.1425 54.0995 116° Southeast  Level Estimated
Tue 09:15:00 PM 38.0833 54.2509 116° Southeast  Level Estimated
Tue 09:16:00 PM 38.0239 54.4021 116° Southeast  Level Estimated
Tue 09:17:00 PM 37.9643 54.5530 117° Southeast  Level Estimated
Tue 09:18:00 PM 37.9045 54.7037 117° Southeast  Level Estimated
Tue 09:19:00 PM 37.8445 54.8541 117° Southeast  Level Estimated
Tue 09:20:00 PM 37.7844 55.0043 117° Southeast  Level Estimated
Tue 09:21:00 PM 37.7240 55.1543 117° Southeast  Level Estimated
Tue 09:22:00 PM 37.6634 55.3040 117° Southeast  Level Estimated
Tue 09:23:00 PM 37.6027 55.4534 117° Southeast  Level Estimated
Tue 09:24:00 PM 37.5418 55.6026 117° Southeast  Level Estimated
Tue 09:25:00 PM 37.4807 55.7516 117° Southeast  Level Estimated
Tue 09:26:00 PM 37.4194 55.9003 117° Southeast  Level Estimated
Tue 09:27:00 PM 37.3579 56.0488 117° Southeast  Level Estimated
Tue 09:28:00 PM 37.2962 56.1970 118° Southeast  Level Estimated
Tue 09:29:00 PM 37.2343 56.3450 118° Southeast  Level Estimated
Tue 09:30:00 PM 37.1723 56.4927 118° Southeast  Level Estimated
Tue 09:31:00 PM 37.1101 56.6403 118° Southeast  Level Estimated
Tue 09:32:00 PM 37.0477 56.7875 118° Southeast  Level Estimated
Tue 09:33:00 PM 36.9851 56.9345 118° Southeast  Level Estimated
Tue 09:34:00 PM 36.9223 57.0813 118° Southeast  Level Estimated
Tue 09:35:00 PM 36.8594 57.2279 118° Southeast  Level Estimated
Tue 09:36:00 PM 36.7962 57.3741 118° Southeast  Level Estimated
Tue 09:37:00 PM 36.7329 57.5202 118° Southeast  Level Estimated
Tue 09:38:00 PM 36.6694 57.6660 118° Southeast  Level Estimated
Tue 09:39:00 PM 36.6058 57.8116 119° Southeast  Level Estimated
Tue 09:40:00 PM 36.5420 57.9569 119° Southeast  Level Estimated
Tue 09:41:00 PM 36.4779 58.1020 119° Southeast  Level Estimated
Tue 09:42:00 PM 36.4137 58.2468 119° Southeast  Level Estimated
Tue 09:43:00 PM 36.3494 58.3914 119° Southeast  Level Estimated
Tue 09:44:00 PM 36.2849 58.5358 119° Southeast  Level Estimated
Tue 09:45:00 PM 36.2201 58.6800 119° Southeast  Level Estimated
Tue 09:46:00 PM 36.1553 58.8238 119° Southeast  Level Estimated
Tue 09:47:00 PM 36.0902 58.9675 119° Southeast  Level Estimated
Tue 09:48:00 PM 36.0250 59.1109 119° Southeast  Level Estimated
Tue 09:49:00 PM 35.9596 59.2541 119° Southeast  Level Estimated
Tue 09:50:00 PM 35.8940 59.3970 119° Southeast  Level Estimated
Tue 09:51:00 PM 35.8283 59.5397 120° Southeast  Level Estimated
Tue 09:52:00 PM 35.7623 59.6822 120° Southeast  Level Estimated
Tue 09:53:00 PM 35.6963 59.8245 120° Southeast  Level Estimated
Tue 09:54:00 PM 35.6300 59.9664 120° Southeast  Level Estimated
Tue 09:55:00 PM 35.5636 60.1082 120° Southeast  Level Estimated
Tue 09:56:00 PM 35.4971 60.2497 120° Southeast  Level Estimated
Tue 09:57:00 PM 35.4303 60.3910 120° Southeast  Level Estimated
Tue 09:58:00 PM 35.3634 60.5321 120° Southeast  Level Estimated
Tue 09:59:00 PM 35.2964 60.6729 120° Southeast  Level Estimated
Tue 10:00:00 PM 35.2291 60.8135 120° Southeast  Level Estimated
Tue 10:01:00 PM 35.1617 60.9539 120° Southeast  Level Estimated
Tue 10:02:00 PM 35.0942 61.0940 120° Southeast  Level Estimated
Tue 10:03:00 PM 35.0265 61.2339 121° Southeast  Level Estimated
Tue 10:04:00 PM 34.9586 61.3735 121° Southeast  Level Estimated
Tue 10:05:00 PM 34.8906 61.5130 121° Southeast  Level Estimated
Tue 10:06:00 PM 34.8224 61.6522 121° Southeast  Level Estimated
Tue 10:07:00 PM 34.7540 61.7911 121° Southeast  Level Estimated
Tue 10:08:00 PM 34.6855 61.9299 121° Southeast  Level Estimated
Tue 10:09:00 PM 34.6169 62.0684 121° Southeast  Level Estimated
Tue 10:10:00 PM 34.5480 62.2067 121° Southeast  Level Estimated
Tue 10:11:00 PM 34.4791 62.3447 121° Southeast  Level Estimated
Tue 10:12:00 PM 34.4099 62.4825 121° Southeast  Level Estimated
Tue 10:13:00 PM 34.3406 62.6201 121° Southeast  Level Estimated
Tue 10:14:00 PM 34.2712 62.7575 121° Southeast  Level Estimated
Tue 10:15:00 PM 34.2016 62.8946 122° Southeast  Level Estimated
Tue 10:16:00 PM 34.1319 63.0316 122° Southeast  Level Estimated
Tue 10:17:00 PM 34.0620 63.1682 122° Southeast  Level Estimated
Tue 10:18:00 PM 33.9919 63.3047 122° Southeast  Level Estimated
Tue 10:19:00 PM 33.9217 63.4409 122° Southeast  Level Estimated
Tue 10:20:00 PM 33.8514 63.5770 122° Southeast  Level Estimated
Tue 10:21:00 PM 33.7809 63.7127 122° Southeast  Level Estimated
Tue 10:22:00 PM 33.7102 63.8483 122° Southeast  Level Estimated
Tue 10:23:00 PM 33.6395 63.9836 122° Southeast  Level Estimated
Tue 10:24:00 PM 33.5685 64.1188 122° Southeast  Level Estimated
Tue 10:25:00 PM 33.4974 64.2537 122° Southeast  Level Estimated
Tue 10:26:00 PM 33.4262 64.3883 122° Southeast  Level Estimated
Tue 10:27:00 PM 33.3548 64.5228 122° Southeast  Level Estimated
Tue 10:28:00 PM 33.2833 64.6570 122° Southeast  Level Estimated
Tue 10:29:00 PM 33.2116 64.7910 123° Southeast  Level Estimated
Tue 10:30:00 PM 33.1398 64.9248 123° Southeast  Level Estimated
Tue 10:31:00 PM 33.0679 65.0584 123° Southeast  Level Estimated
Tue 10:32:00 PM 32.9958 65.1918 123° Southeast  Level Estimated
Tue 10:33:00 PM 32.9235 65.3249 123° Southeast  Level Estimated
Tue 10:34:00 PM 32.8512 65.4578 123° Southeast  Level Estimated
Tue 10:35:00 PM 32.7786 65.5905 123° Southeast  Level Estimated
Tue 10:36:00 PM 32.7060 65.7230 123° Southeast  Level Estimated
Tue 10:37:00 PM 32.6332 65.8553 123° Southeast  Level Estimated
Tue 10:38:00 PM 32.5602 65.9873 123° Southeast  Level Estimated
Tue 10:39:00 PM 32.4872 66.1192 123° Southeast  Level Estimated
Tue 10:40:00 PM 32.4140 66.2508 123° Southeast  Level Estimated
Tue 10:41:00 PM 32.3406 66.3822 123° Southeast  Level Estimated
Tue 10:42:00 PM 32.2671 66.5134 123° Southeast  Level Estimated
Tue 10:43:00 PM 32.1935 66.6444 124° Southeast  Level Estimated
Tue 10:44:00 PM 32.1198 66.7752 124° Southeast  Level Estimated
Tue 10:45:00 PM 32.0459 66.9058 124° Southeast  Level Estimated
Tue 10:46:00 PM 31.9718 67.0361 124° Southeast  Level Estimated
Tue 10:47:00 PM 31.8977 67.1663 124° Southeast  Level Estimated
Tue 10:48:00 PM 31.8234 67.2962 124° Southeast  Level Estimated
Tue 10:49:00 PM 31.7490 67.4259 124° Southeast  Level Estimated
Tue 10:49:00 PM 26.1410 65.2920 124° Southeast 568 654 35,000  Level FlightAware ADS-B
Tue 10:49:40 PM 26.0820 65.3840 126° Southeast 567 652 35,000  Level FlightAware ADS-B
Tue 10:50:25 PM 26.0100 65.4960 126° Southeast 569 655 35,000  Level FlightAware ADS-B
Tue 10:51:05 PM 25.9510 65.5880 125° Southeast 569 655 35,000  Level FlightAware ADS-B
Tue 10:51:50 PM 25.8800 65.6980 126° Southeast 569 655 35,000  Level FlightAware ADS-B
Tue 10:52:30 PM 25.8200 65.7910 126° Southeast 569 655 35,000  Level FlightAware ADS-B
Tue 10:53:10 PM 25.7590 65.8860 125° Southeast 569 655 35,000  Level FlightAware ADS-B
Tue 10:53:55 PM 25.6890 65.9940 126° Southeast 568 654 35,000  Level FlightAware ADS-B
Tue 10:54:35 PM 25.6250 66.0910 126° Southeast 569 655 35,000  Level FlightAware ADS-B
Tue 10:55:20 PM 25.5580 66.1940 126° Southeast 571 657 35,000  Level FlightAware ADS-B
Tue 10:56:00 PM 25.4960 66.2890 126° Southeast 571 657 35,000  Level FlightAware ADS-B
Tue 10:56:40 PM 25.4330 66.3850 126° Southeast 572 658 35,000  Level FlightAware ADS-B
Tue 10:57:25 PM 25.3630 66.4910 126° Southeast 573 659 35,000  Level FlightAware ADS-B
Tue 10:58:05 PM 25.2990 66.5890 126° Southeast 576 663 35,000  Level FlightAware ADS-B
Tue 10:58:50 PM 25.2320 66.6920 126° Southeast 577 664 35,000  Level FlightAware ADS-B
Tue 10:59:30 PM 25.1680 66.7890 126° Southeast 577 664 35,000  Level FlightAware ADS-B
Tue 11:00:10 PM 25.1050 66.8830 126° Southeast 578 665 35,000  Level FlightAware ADS-B
Tue 11:00:55 PM 25.0330 66.9920 126° Southeast 577 664 35,000  Level FlightAware ADS-B
Tue 11:01:35 PM 24.9700 67.0870 126° Southeast 577 664 35,000  Level FlightAware ADS-B
Tue 11:02:20 PM 24.9030 67.1960 124° Southeast 577 664 35,000  Level FlightAware ADS-B
Tue 11:03:00 PM 24.8520 67.2980 119° Southeast 577 664 35,000  Level FlightAware ADS-B
Tue 11:03:40 PM 24.8030 67.4030 117° Southeast 575 662 35,000  Level FlightAware ADS-B
Tue 11:04:25 PM 24.7470 67.5200 118° Southeast 574 661 35,000  Level FlightAware ADS-B
Tue 11:05:05 PM 24.6990 67.6210 118° Southeast 573 659 35,000  Level FlightAware ADS-B
Tue 11:05:45 PM 24.6480 67.7240 119° Southeast 574 661 35,000  Level FlightAware ADS-B
Tue 11:06:30 PM 24.5900 67.8380 119° Southeast 575 662 35,000  Level FlightAware ADS-B
Tue 11:07:10 PM 24.5360 67.9420 120° Southeast 576 663 35,000  Level FlightAware ADS-B
Tue 11:07:55 PM 24.4800 68.0530 119° Southeast 576 663 35,000  Level FlightAware ADS-B
Tue 11:08:35 PM 24.4270 68.1580 119° Southeast 575 662 35,000  Level FlightAware ADS-B
Tue 11:09:15 PM 24.3760 68.2590 119° Southeast 573 659 35,000  Level FlightAware ADS-B
Tue 11:10:00 PM 24.3160 68.3770 119° Southeast 573 659 35,000  Level FlightAware ADS-B
Tue 11:10:40 PM 24.2650 68.4770 119° Southeast 572 658 35,000  Level FlightAware ADS-B
Tue 11:11:25 PM 24.2080 68.5890 119° Southeast 572 658 35,000  Level FlightAware ADS-B
Tue 11:12:05 PM 24.1570 68.6890 119° Southeast 571 657 35,000  Level FlightAware ADS-B
Tue 11:12:45 PM 24.1120 68.7960 115° Southeast 573 659 35,000  Level FlightAware ADS-B
Tue 11:13:30 PM 24.0770 68.9230 107° East 574 661 35,000  Level FlightAware ADS-B
Tue 11:14:10 PM 24.0470 69.0350 106° East 574 661 35,000  Level FlightAware ADS-B
Tue 11:14:55 PM 24.0170 69.1510 106° East 574 661 35,000  Level FlightAware ADS-B
Tue 11:15:35 PM 23.9860 69.2690 106° East 576 663 35,000  Level FlightAware ADS-B
Tue 11:16:15 PM 23.9570 69.3820 106° East 576 663 35,000  Level FlightAware ADS-B
Tue 11:17:00 PM 23.9240 69.5080 106° East 576 663 35,000  Level FlightAware ADS-B
Tue 11:17:40 PM 23.8940 69.6210 106° East 576 663 35,000  Level FlightAware ADS-B
Tue 11:18:25 PM 23.8610 69.7440 106° East 576 663 35,000  Level FlightAware ADS-B
Tue 11:19:05 PM 23.8310 69.8570 106° East 575 662 35,000  Level FlightAware ADS-B
Tue 11:19:45 PM 23.8010 69.9710 106° East 575 662 35,000  Level FlightAware ADS-B
Tue 11:20:30 PM 23.7680 70.0910 107° East 575 662 35,000  Level FlightAware ADS-B
Tue 11:21:10 PM 23.7380 70.2040 106° East 574 661 35,000  Level FlightAware ADS-B
Tue 11:21:55 PM 23.7050 70.3250 107° East 574 661 35,000  Level FlightAware ADS-B
Tue 11:23:05 PM 23.6560 70.5100 106° East 574 661 35,000  Level FlightAware ADS-B
Tue 11:23:45 PM 23.6240 70.6260 107° East 574 661 35,000  Level FlightAware ADS-B
Tue 11:24:25 PM 23.5990 70.7210 106° East 574 661 35,000  Level FlightAware ADS-B
Tue 11:25:05 PM 23.5740 70.8150 106° East 574 661 35,000  Level FlightAware ADS-B
Tue 11:25:45 PM 23.5490 70.9100 106° East 574 661 35,000  Level FlightAware ADS-B
Tue 11:26:35 PM 23.5180 71.0290 106° East 574 661 35,000  Level FlightAware ADS-B
Tue 11:27:15 PM 23.4930 71.1230 106° East 574 661 35,000  Level FlightAware ADS-B
Tue 11:27:55 PM 23.4690 71.2180 105° East 574 661 35,000  Level FlightAware ADS-B
Tue 11:28:35 PM 23.4440 71.3120 106° East 574 661 35,000  Level FlightAware ADS-B
Tue 11:29:25 PM 23.4130 71.4310 106° East 574 661 35,000  Level FlightAware ADS-B
Tue 11:30:05 PM 23.3880 71.5250 106° East 574 661 35,000  Level FlightAware ADS-B
Tue 11:30:45 PM 23.3630 71.6200 106° East 574 661 35,000  Level FlightAware ADS-B
Tue 11:31:25 PM 23.3380 71.7140 106° East 574 661 35,000  Level FlightAware ADS-B
Tue 11:32:05 PM 23.3130 71.8090 106° East 574 661 35,000  Level FlightAware ADS-B
Tue 11:32:55 PM 23.2820 71.9270 106° East 574 661 35,000  Level FlightAware ADS-B
Tue 11:35:00 PM 23.1409 72.1866 121° Southeast  Level Estimated
Tue 11:36:00 PM 23.0731 72.3110 121° Southeast  Level Estimated
Tue 11:37:00 PM 23.0051 72.4352 121° Southeast  Level Estimated
Tue 11:38:00 PM 22.9370 72.5594 121° Southeast  Level Estimated
Tue 11:39:00 PM 22.8689 72.6834 121° Southeast  Level Estimated
Tue 11:40:00 PM 22.8006 72.8073 121° Southeast  Level Estimated
Tue 11:41:00 PM 22.7323 72.9311 121° Southeast  Level Estimated
Tue 11:42:00 PM 22.6639 73.0548 121° Southeast  Level Estimated
Tue 11:43:00 PM 22.5953 73.1783 121° Southeast  Level Estimated
Tue 11:44:00 PM 22.5267 73.3017 121° Southeast  Level Estimated
Tue 11:45:00 PM 22.4580 73.4250 121° Southeast  Level Estimated
Tue 11:46:00 PM 22.3892 73.5481 121° Southeast  Level Estimated
Tue 11:47:00 PM 22.3203 73.6712 121° Southeast  Level Estimated
Tue 11:48:00 PM 22.2513 73.7941 121° Southeast  Level Estimated
Tue 11:49:00 PM 22.1822 73.9169 121° Southeast  Level Estimated
Tue 11:50:00 PM 22.1130 74.0396 121° Southeast  Level Estimated
Tue 11:51:00 PM 22.0437 74.1621 121° Southeast  Level Estimated
Tue 11:52:00 PM 21.9743 74.2846 121° Southeast  Level Estimated
Tue 11:53:00 PM 21.9049 74.4069 121° Southeast  Level Estimated
Tue 11:54:00 PM 21.8353 74.5291 121° Southeast  Level Estimated
Tue 11:55:00 PM 21.7657 74.6512 122° Southeast  Level Estimated
Tue 11:56:00 PM 21.6959 74.7731 122° Southeast  Level Estimated
Tue 11:57:00 PM 21.6261 74.8950 122° Southeast  Level Estimated
Tue 11:58:00 PM 21.5562 75.0167 122° Southeast  Level Estimated
Tue 11:59:00 PM 21.4862 75.1383 122° Southeast  Level Estimated
Wed 12:00:00 AM 21.4161 75.2598 122° Southeast  Level Estimated
Wed 12:01:00 AM 21.3460 75.3812 122° Southeast  Level Estimated
Wed 12:02:00 AM 21.2757 75.5024 122° Southeast  Level Estimated
Wed 12:03:00 AM 21.2054 75.6236 122° Southeast  Level Estimated
Wed 12:04:00 AM 21.1349 75.7446 122° Southeast  Level Estimated
Wed 12:05:00 AM 21.0644 75.8655 122° Southeast  Level Estimated
Wed 12:06:00 AM 20.9938 75.9863 122° Southeast  Level Estimated
Wed 12:07:00 AM 20.9231 76.1070 122° Southeast  Level Estimated
Wed 12:08:00 AM 20.8524 76.2276 122° Southeast  Level Estimated
Wed 12:09:00 AM 20.7815 76.3480 122° Southeast  Level Estimated
Wed 12:10:00 AM 20.7106 76.4684 122° Southeast  Level Estimated
Wed 12:11:00 AM 20.6395 76.5886 122° Southeast  Level Estimated
Wed 12:12:00 AM 20.5684 76.7087 122° Southeast  Level Estimated
Wed 12:13:00 AM 20.4972 76.8287 122° Southeast  Level Estimated
Wed 12:13:10 AM 20.7590 78.4480 122° Southeast 562 647 35,000  Level FlightAware ADS-B
Wed 12:14:00 AM 20.4260 76.9486 122° Southeast  Level Estimated
Wed 12:14:10 AM 20.6890 78.5750 120° Southeast 562 647 35,000  Level FlightAware ADS-B
Wed 12:14:50 AM 20.6450 78.6570 120° Southeast 562 647 35,000  Level FlightAware ADS-B
Wed 12:15:30 AM 20.6010 78.7390 120° Southeast 562 647 35,000  Level FlightAware ADS-B
Wed 12:16:10 AM 20.5150 78.8830 123° Southeast 561 646 35,000  Level FlightAware ADS-B
Wed 12:16:55 AM 20.4640 78.9770 120° Southeast 561 646 35,000  Level FlightAware ADS-B
Wed 12:17:40 AM 20.3990 79.0880 122° Southeast 562 647 35,000  Level FlightAware ADS-B
Wed 12:18:15 AM 20.3550 79.1690 120° Southeast 562 647 35,000  Level FlightAware ADS-B
Wed 12:19:05 AM 20.3000 79.2710 120° Southeast 562 647 35,000  Level FlightAware ADS-B
Wed 12:19:40 AM 20.2370 79.3750 123° Southeast 563 648 35,000  Level FlightAware ADS-B
Wed 12:20:20 AM 20.1920 79.4560 121° Southeast 563 648 35,000  Level FlightAware ADS-B
Wed 12:21:10 AM 20.1350 79.5570 121° Southeast 563 648 35,000  Level FlightAware ADS-B
Wed 12:21:50 AM 20.0700 79.6680 122° Southeast 563 648 35,000  Level FlightAware ADS-B
Wed 12:22:35 AM 19.9950 79.7990 121° Southeast 562 647 35,000  Level FlightAware ADS-B
Wed 12:23:25 AM 19.9390 79.8970 121° Southeast 561 646 35,000  Level FlightAware ADS-B
Wed 12:24:10 AM 19.8870 79.9890 121° Southeast 561 646 35,000  Level FlightAware ADS-B
Wed 12:25:00 AM 19.8110 80.1220 121° Southeast 559 643 35,000  Level FlightAware ADS-B
Wed 12:25:50 AM 19.7540 80.2220 121° Southeast 559 643 35,000  Level FlightAware ADS-B
Wed 12:26:30 AM 19.7090 80.3020 121° Southeast 559 643 35,000  Level FlightAware ADS-B
Wed 12:27:10 AM 19.6630 80.3820 121° Southeast 559 643 35,000  Level FlightAware ADS-B
Wed 12:28:10 AM 19.5490 80.5750 122° Southeast 557 641 35,000  Level FlightAware ADS-B
Wed 12:28:45 AM 19.5010 80.6570 122° Southeast 557 641 35,000  Level FlightAware ADS-B
Wed 12:29:30 AM 19.4480 80.7500 121° Southeast 558 642 35,000 1,143 Level FlightAware ADS-B
Wed 12:30:30 AM 19.3600 80.9000 122° Southeast 542 624 37,000 1,143 Climbing FlightAware ADS-B
Wed 12:31:15 AM 19.3100 80.9860 122° Southeast 540 621 37,000  Level FlightAware ADS-B
Wed 12:32:10 AM 19.2340 81.1170 122° Southeast 542 624 37,000  Level FlightAware ADS-B
Wed 12:32:50 AM 19.1850 81.2010 122° Southeast 545 627 37,000  Level FlightAware ADS-B
Wed 12:33:30 AM 19.1410 81.2780 121° Southeast 545 627 37,000  Level FlightAware ADS-B
Wed 12:34:10 AM 19.0970 81.3560 121° Southeast 545 627 37,000  Level FlightAware ADS-B
Wed 12:35:00 AM 19.0420 81.4530 121° Southeast 545 627 37,000  Level FlightAware ADS-B
Wed 12:35:35 AM 18.9600 81.5820 124° Southeast 540 621 37,000  Level FlightAware ADS-B
Wed 12:36:15 AM 18.9090 81.6680 122° Southeast 538 619 37,000  Level FlightAware ADS-B
Wed 12:37:00 AM 18.8570 81.7600 121° Southeast 538 619 37,000  Level FlightAware ADS-B
Wed 12:37:40 AM 18.8130 81.8360 121° Southeast 538 619 37,000  Level FlightAware ADS-B
Wed 12:38:25 AM 18.7320 81.9660 123° Southeast 537 618 37,000  Level FlightAware ADS-B
Wed 12:39:10 AM 18.6770 82.0470 126° Southeast 537 618 37,000  Level FlightAware ADS-B
Wed 12:39:50 AM 18.6270 82.1190 126° Southeast 537 618 37,000  Level FlightAware ADS-B
Wed 12:40:30 AM 18.5770 82.1910 126° Southeast 537 618 37,000  Level FlightAware ADS-B
Wed 12:41:10 AM 18.5280 82.2630 126° Southeast 537 618 37,000  Level FlightAware ADS-B
Wed 12:42:00 AM 18.4660 82.3540 126° Southeast 537 618 37,000  Level FlightAware ADS-B
Wed 12:42:40 AM 18.4160 82.4260 126° Southeast 537 618 37,000  Level FlightAware ADS-B
Wed 12:43:20 AM 18.3660 82.4980 126° Southeast 537 618 37,000  Level FlightAware ADS-B
Wed 12:44:00 AM 18.3170 82.5700 126° Southeast 537 618 37,000  Level FlightAware ADS-B
Wed 12:44:40 AM 18.2670 82.6420 126° Southeast 537 618 37,000  Level FlightAware ADS-B
Wed 12:45:30 AM 18.2050 82.7310 126° Southeast 537 618 37,000  Level FlightAware ADS-B
Wed 12:46:10 AM 18.1550 82.8030 126° Southeast 537 618 37,000  Level FlightAware ADS-B
Wed 12:46:50 AM 18.1060 82.8750 126° Southeast 537 618 37,000  Level FlightAware ADS-B
Wed 12:47:30 AM 18.0560 82.9470 126° Southeast 537 618 37,000  Level FlightAware ADS-B
Wed 12:48:10 AM 18.0060 83.0190 126° Southeast 537 618 37,000 -50 Level FlightAware ADS-B
Wed 12:50:00 AM 17.8603 83.2246 127° Southeast  Level Estimated
Wed 12:51:00 AM 17.7808 83.3366 127° Southeast  Level Estimated
Wed 12:52:00 AM 17.7012 83.4485 127° Southeast  Level Estimated
Wed 12:53:00 AM 17.6215 83.5603 127° Southeast  Level Estimated
Wed 12:54:00 AM 17.5418 83.6721 127° Southeast  Level Estimated
Wed 12:55:00 AM 17.4620 83.7837 127° Southeast  Level Estimated
Wed 12:56:00 AM 17.3822 83.8952 127° Southeast  Level Estimated
Wed 12:57:00 AM 17.3023 84.0066 127° Southeast  Level Estimated
Wed 12:58:00 AM 17.2223 84.1179 127° Southeast  Level Estimated
Wed 12:59:00 AM 17.1422 84.2291 127° Southeast  Level Estimated
Wed 01:00:00 AM 17.0621 84.3403 127° Southeast  Level Estimated
Wed 01:01:00 AM 16.9820 84.4513 127° Southeast  Level Estimated
Wed 01:02:00 AM 16.9018 84.5622 127° Southeast  Level Estimated
Wed 01:03:00 AM 16.8215 84.6731 127° Southeast  Level Estimated
Wed 01:04:00 AM 16.7411 84.7838 127° Southeast  Level Estimated
Wed 01:05:00 AM 16.6607 84.8945 127° Southeast  Level Estimated
Wed 01:06:00 AM 16.5803 85.0051 127° Southeast  Level Estimated
Wed 01:07:00 AM 16.4998 85.1155 127° Southeast  Level Estimated
Wed 01:08:00 AM 16.4192 85.2259 127° Southeast  Level Estimated
Wed 01:09:00 AM 16.3386 85.3362 127° Southeast  Level Estimated
Wed 01:10:00 AM 16.2579 85.4464 127° Southeast  Level Estimated
Wed 01:11:00 AM 16.1771 85.5565 127° Southeast  Level Estimated
Wed 01:12:00 AM 16.0963 85.6665 127° Southeast  Level Estimated
Wed 01:13:00 AM 16.0155 85.7765 127° Southeast  Level Estimated
Wed 01:14:00 AM 15.9346 85.8863 127° Southeast  Level Estimated
Wed 01:15:00 AM 15.8536 85.9960 127° Southeast  Level Estimated
Wed 01:16:00 AM 15.7726 86.1057 128° Southeast  Level Estimated
Wed 01:17:00 AM 15.6915 86.2153 128° Southeast  Level Estimated
Wed 01:18:00 AM 15.6104 86.3248 128° Southeast  Level Estimated
Wed 01:19:00 AM 15.5292 86.4342 128° Southeast  Level Estimated
Wed 01:20:00 AM 15.4479 86.5435 128° Southeast  Level Estimated
Wed 01:21:00 AM 15.3666 86.6527 128° Southeast  Level Estimated
Wed 01:22:00 AM 15.2853 86.7618 128° Southeast  Level Estimated
Wed 01:23:00 AM 15.2039 86.8709 128° Southeast  Level Estimated
Wed 01:24:00 AM 15.1224 86.9799 128° Southeast  Level Estimated
Wed 01:25:00 AM 15.0409 87.0888 128° Southeast  Level Estimated
Wed 01:26:00 AM 14.9594 87.1976 128° Southeast  Level Estimated
Wed 01:27:00 AM 14.8778 87.3063 128° Southeast  Level Estimated
Wed 01:28:00 AM 14.7961 87.4149 128° Southeast  Level Estimated
Wed 01:29:00 AM 14.7144 87.5235 128° Southeast  Level Estimated
Wed 01:30:00 AM 14.6327 87.6320 128° Southeast  Level Estimated
Wed 01:31:00 AM 14.5508 87.7404 128° Southeast  Level Estimated
Wed 01:32:00 AM 14.4690 87.8487 128° Southeast  Level Estimated
Wed 01:33:00 AM 14.3871 87.9569 128° Southeast  Level Estimated
Wed 01:34:00 AM 14.3051 88.0651 128° Southeast  Level Estimated
Wed 01:35:00 AM 14.2231 88.1732 128° Southeast  Level Estimated
Wed 01:36:00 AM 14.1410 88.2812 128° Southeast  Level Estimated
Wed 01:37:00 AM 14.0589 88.3891 128° Southeast  Level Estimated
Wed 01:38:00 AM 13.9768 88.4969 128° Southeast  Level Estimated
Wed 01:39:00 AM 13.8946 88.6047 128° Southeast  Level Estimated
Wed 01:40:00 AM 13.8123 88.7124 128° Southeast  Level Estimated
Wed 01:41:00 AM 13.7301 88.8200 128° Southeast  Level Estimated
Wed 01:42:00 AM 13.6477 88.9276 128° Southeast  Level Estimated
Wed 01:43:00 AM 13.5653 89.0350 128° Southeast  Level Estimated
Wed 01:44:00 AM 13.4829 89.1424 128° Southeast  Level Estimated
Wed 01:45:00 AM 13.4004 89.2497 128° Southeast  Level Estimated
Wed 01:46:00 AM 13.3179 89.3570 128° Southeast  Level Estimated
Wed 01:47:00 AM 13.2353 89.4642 128° Southeast  Level Estimated
Wed 01:48:00 AM 13.1527 89.5713 128° Southeast  Level Estimated
Wed 01:49:00 AM 13.0701 89.6783 128° Southeast  Level Estimated
Wed 01:50:00 AM 12.9874 89.7852 128° Southeast  Level Estimated
Wed 01:51:00 AM 12.9046 89.8921 128° Southeast  Level Estimated
Wed 01:52:00 AM 12.8218 89.9989 128° Southeast  Level Estimated
Wed 01:53:00 AM 12.7390 90.1057 128° Southeast  Level Estimated
Wed 01:54:00 AM 12.6561 90.2123 129° Southeast  Level Estimated
Wed 01:55:00 AM 12.5732 90.3189 129° Southeast  Level Estimated
Wed 01:56:00 AM 12.4902 90.4255 129° Southeast  Level Estimated
Wed 01:57:00 AM 12.4072 90.5319 129° Southeast  Level Estimated
Wed 01:58:00 AM 12.3242 90.6383 129° Southeast  Level Estimated
Wed 01:59:00 AM 12.2411 90.7447 129° Southeast  Level Estimated
Wed 02:00:00 AM 12.1580 90.8509 129° Southeast  Level Estimated
Wed 02:01:00 AM 12.0748 90.9571 129° Southeast  Level Estimated
Wed 02:02:00 AM 11.9916 91.0633 129° Southeast  Level Estimated
Wed 02:03:00 AM 11.9084 91.1693 129° Southeast  Level Estimated
Wed 02:04:00 AM 11.8251 91.2753 129° Southeast  Level Estimated
Wed 02:05:00 AM 11.7418 91.3813 129° Southeast  Level Estimated
Wed 02:06:00 AM 11.6584 91.4871 129° Southeast  Level Estimated
Wed 02:07:00 AM 11.5750 91.5929 129° Southeast  Level Estimated
Wed 02:07:15 AM 43.1450 39.6020 129° Southeast 427 491 33,000  Level FlightAware ADS-B
Wed 02:08:00 AM 11.4916 91.6987 129° Southeast  Level Estimated
Wed 02:08:00 AM 43.1080 39.6980 118° Southeast 427 491 33,000  Level FlightAware ADS-B
Wed 02:08:50 AM 43.0680 39.7990 118° Southeast 427 491 33,000  Level FlightAware ADS-B
Wed 02:09:30 AM 43.0370 39.8800 118° Southeast 427 491 33,000  Level FlightAware ADS-B
Wed 02:10:10 AM 43.0050 39.9610 118° Southeast 427 491 33,000  Level FlightAware ADS-B
Wed 02:10:50 AM 42.9740 40.0420 118° Southeast 427 491 33,000  Level FlightAware ADS-B
Wed 02:11:30 AM 42.9420 40.1230 118° Southeast 427 491 33,000  Level FlightAware ADS-B
Wed 02:12:20 AM 42.9030 40.2250 118° Southeast 427 491 33,000  Level FlightAware ADS-B
Wed 02:13:00 AM 42.8710 40.3060 118° Southeast 427 491 33,000  Level FlightAware ADS-B
Wed 02:13:40 AM 42.8400 40.3870 118° Southeast 427 491 33,000  Level FlightAware ADS-B
Wed 02:14:20 AM 42.8080 40.4670 119° Southeast 427 491 33,000  Level FlightAware ADS-B
Wed 02:15:00 AM 42.7760 40.5480 118° Southeast 427 491 33,000  Level FlightAware ADS-B
Wed 02:15:40 AM 42.7450 40.6290 118° Southeast 427 491 33,000  Level FlightAware ADS-B
Wed 02:16:30 AM 42.7060 40.7300 118° Southeast 427 491 33,000  Level FlightAware ADS-B
Wed 02:17:10 AM 42.6740 40.8110 118° Southeast 427 491 33,000 70 Level FlightAware ADS-B
Wed 02:19:00 AM 42.5985 41.1263 108° East  Level Estimated
Wed 02:20:00 AM 42.5570 41.2979 108° East  Level Estimated
Wed 02:21:00 AM 42.5153 41.4693 108° East  Level Estimated
Wed 02:22:00 AM 42.4732 41.6405 108° East  Level Estimated
Wed 02:23:00 AM 42.4310 41.8114 108° East  Level Estimated
Wed 02:24:00 AM 42.3884 41.9822 109° East  Level Estimated
Wed 02:25:00 AM 42.3456 42.1526 109° East  Level Estimated
Wed 02:26:00 AM 42.3026 42.3229 109° East  Level Estimated
Wed 02:27:00 AM 42.2593 42.4929 109° East  Level Estimated
Wed 02:28:00 AM 42.2158 42.6627 109° East  Level Estimated
Wed 02:29:00 AM 42.1720 42.8323 109° East  Level Estimated
Wed 02:30:00 AM 42.1279 43.0016 109° East  Level Estimated
Wed 02:31:00 AM 42.0836 43.1707 109° East  Level Estimated
Wed 02:32:00 AM 42.0391 43.3395 110° East  Level Estimated
Wed 02:33:00 AM 41.9943 43.5081 110° East  Level Estimated
Wed 02:34:00 AM 41.9493 43.6765 110° East  Level Estimated
Wed 02:35:00 AM 41.9040 43.8446 110° East  Level Estimated
Wed 02:36:00 AM 41.8585 44.0125 110° East  Level Estimated
Wed 02:37:00 AM 41.8127 44.1801 110° East  Level Estimated
Wed 02:38:00 AM 41.7667 44.3476 110° East  Level Estimated
Wed 02:39:00 AM 41.7204 44.5147 110° East  Level Estimated
Wed 02:40:00 AM 41.6739 44.6817 110° East  Level Estimated
Wed 02:41:00 AM 41.6272 44.8484 111° Southeast  Level Estimated
Wed 02:42:00 AM 41.5802 45.0148 111° Southeast  Level Estimated
Wed 02:43:00 AM 41.5330 45.1810 111° Southeast  Level Estimated
Wed 02:44:00 AM 41.4855 45.3470 111° Southeast  Level Estimated
Wed 02:45:00 AM 41.4379 45.5127 111° Southeast  Level Estimated
Wed 02:46:00 AM 41.3899 45.6782 111° Southeast  Level Estimated
Wed 02:47:00 AM 41.3418 45.8434 111° Southeast  Level Estimated
Wed 02:48:00 AM 41.2934 46.0084 111° Southeast  Level Estimated
Wed 02:49:00 AM 41.2447 46.1731 111° Southeast  Level Estimated
Wed 02:50:00 AM 41.1958 46.3376 112° Southeast  Level Estimated
Wed 02:51:00 AM 41.1467 46.5018 112° Southeast  Level Estimated
Wed 02:52:00 AM 41.0974 46.6658 112° Southeast  Level Estimated
Wed 02:53:00 AM 41.0478 46.8296 112° Southeast  Level Estimated
Wed 02:54:00 AM 40.9980 46.9931 112° Southeast  Level Estimated
Wed 02:55:00 AM 40.9480 47.1564 112° Southeast  Level Estimated
Wed 02:56:00 AM 40.8977 47.3194 112° Southeast  Level Estimated
Wed 02:57:00 AM 40.8472 47.4821 112° Southeast  Level Estimated
Wed 02:58:00 AM 40.7965 47.6446 112° Southeast  Level Estimated
Wed 02:59:00 AM 40.7456 47.8069 112° Southeast  Level Estimated
Wed 03:00:00 AM 40.6944 47.9689 113° Southeast  Level Estimated
Wed 03:01:00 AM 40.6430 48.1307 113° Southeast  Level Estimated
Wed 03:02:00 AM 40.5914 48.2922 113° Southeast  Level Estimated
Wed 03:03:00 AM 40.5395 48.4535 113° Southeast  Level Estimated
Wed 03:04:00 AM 40.4874 48.6145 113° Southeast  Level Estimated
Wed 03:05:00 AM 40.4351 48.7753 113° Southeast  Level Estimated
Wed 03:06:00 AM 40.3826 48.9358 113° Southeast  Level Estimated
Wed 03:07:00 AM 40.3299 49.0961 113° Southeast  Level Estimated
Wed 03:08:00 AM 40.2769 49.2561 113° Southeast  Level Estimated
Wed 03:09:00 AM 40.2237 49.4159 114° Southeast  Level Estimated
Wed 03:10:00 AM 40.1703 49.5754 114° Southeast  Level Estimated
Wed 03:11:00 AM 40.1167 49.7346 114° Southeast  Level Estimated
Wed 03:12:00 AM 40.0629 49.8936 114° Southeast  Level Estimated
Wed 03:13:00 AM 40.0088 50.0524 114° Southeast  Level Estimated
Wed 03:13:57 AM 5.5040 98.0130 114° Southeast 464 534 37,000  Level FlightAware ADS-B
Wed 03:14:00 AM 39.9545 50.2109 114° Southeast  Level Estimated
Wed 03:15:00 AM 39.9001 50.3692 114° Southeast  Level Estimated
Wed 03:15:42 AM 5.3850 98.1970 123° Southeast 463 533 37,000  Level FlightAware ADS-B
Wed 03:18:00 AM 5.2108 98.4497 125° Southeast  Level Estimated
Wed 03:19:00 AM 5.1351 98.5595 125° Southeast  Level Estimated
Wed 03:20:00 AM 5.0593 98.6693 125° Southeast  Level Estimated
Wed 03:21:00 AM 4.9836 98.7790 125° Southeast  Level Estimated
Wed 03:21:57 AM 4.9800 98.9120 125° Southeast 468 539 37,000  Level FlightAware ADS-B
Wed 03:22:00 AM 4.9078 98.8887 125° Southeast  Level Estimated
Wed 03:24:00 AM 4.8219 99.1351 125° Southeast  Level Estimated
Wed 03:25:00 AM 4.7448 99.2438 125° Southeast  Level Estimated
Wed 03:26:00 AM 4.6677 99.3526 125° Southeast  Level Estimated
Wed 03:27:00 AM 4.5905 99.4613 125° Southeast  Level Estimated
Wed 03:28:00 AM 4.5134 99.5700 125° Southeast  Level Estimated
Wed 03:29:00 AM 4.4362 99.6787 125° Southeast  Level Estimated
Wed 03:30:00 AM 4.3590 99.7873 125° Southeast  Level Estimated
Wed 03:31:00 AM 4.2817 99.8960 125° Southeast  Level Estimated
Wed 03:32:00 AM 4.2045 100.0046 125° Southeast  Level Estimated
Wed 03:33:00 AM 4.1273 100.1132 125° Southeast  Level Estimated
Wed 03:34:00 AM 4.0500 100.2217 126° Southeast  Level Estimated
Wed 03:35:00 AM 3.9727 100.3303 126° Southeast  Level Estimated
Wed 03:35:07 AM 3.8350 100.2280 126° Southeast 477 549 37,000  Level FlightAware ADS-B
Wed 03:35:47 AM 3.7820 100.2880 132° Southeast 477 549 37,000  Level FlightAware ADS-B
Wed 03:36:32 AM 3.7110 100.3670 132° Southeast 475 547 37,000  Level FlightAware ADS-B
Wed 03:37:12 AM 3.6510 100.4330 132° Southeast 477 549 37,000  Level FlightAware ADS-B
Wed 03:37:57 AM 3.5850 100.5070 132° Southeast 478 550 37,000  Level FlightAware ADS-B
Wed 03:38:37 AM 3.5260 100.5740 131° Southeast 480 552 37,000  Level FlightAware ADS-B
Wed 03:39:17 AM 3.4660 100.6410 132° Southeast 480 552 37,000  Level FlightAware ADS-B
Wed 03:40:02 AM 3.4000 100.7140 132° Southeast 477 549 37,000  Level FlightAware ADS-B
Wed 03:40:42 AM 3.3410 100.7800 132° Southeast 476 548 37,000  Level FlightAware ADS-B
Wed 03:41:27 AM 3.2750 100.8540 132° Southeast 474 545 37,000  Level FlightAware ADS-B
Wed 03:42:07 AM 3.2170 100.9180 132° Southeast 473 544 37,000  Level FlightAware ADS-B
Wed 03:42:47 AM 3.1590 100.9830 132° Southeast 474 545 37,000  Level FlightAware ADS-B
Wed 03:43:32 AM 3.0910 101.0580 132° Southeast 473 544 37,000  Level FlightAware ADS-B
Wed 03:44:12 AM 3.0330 101.1230 132° Southeast 474 545 37,000  Level FlightAware ADS-B
Wed 03:44:57 AM 2.9670 101.1970 132° Southeast 475 547 37,000  Level FlightAware ADS-B
Wed 03:45:37 AM 2.9090 101.2610 132° Southeast 476 548 37,000  Level FlightAware ADS-B
Wed 03:46:17 AM 2.8500 101.3270 132° Southeast 475 547 37,000  Level FlightAware ADS-B
Wed 03:46:57 AM 2.7900 101.3930 132° Southeast 476 548 37,000  Level FlightAware ADS-B
Wed 03:47:37 AM 2.7370 101.4520 132° Southeast 476 548 37,000  Level FlightAware ADS-B
Wed 03:48:27 AM 2.6660 101.5320 132° Southeast 475 547 37,000  Level FlightAware ADS-B
Wed 03:49:07 AM 2.6070 101.5970 132° Southeast 476 548 37,000  Level FlightAware ADS-B
Wed 03:49:47 AM 2.5540 101.6560 132° Southeast 477 549 37,000  Level FlightAware ADS-B
Wed 03:50:32 AM 2.4750 101.7440 132° Southeast 475 547 37,000  Level FlightAware ADS-B
Wed 03:51:12 AM 2.4110 101.8160 132° Southeast 475 547 37,000  Level FlightAware ADS-B
Wed 03:51:52 AM 2.3700 101.8610 132° Southeast 475 547 37,000  Level FlightAware ADS-B
Wed 03:52:27 AM 2.3110 101.9270 132° Southeast 477 549 37,000  Level FlightAware ADS-B
Wed 03:53:17 AM 2.2360 102.0100 132° Southeast 478 550 37,000  Level FlightAware ADS-B
Wed 03:54:02 AM 2.1800 102.0740 131° Southeast 478 550 37,000  Level FlightAware ADS-B
Wed 03:54:42 AM 2.1220 102.1700 121° Southeast 476 548 37,000  Level FlightAware ADS-B
Wed 03:55:17 AM 2.1180 102.1760 124° Southeast 476 548 37,000  Level FlightAware ADS-B
Wed 03:56:02 AM 2.0790 102.2530 117° Southeast 476 548 37,000  Level FlightAware ADS-B
Wed 03:56:42 AM 2.0450 102.3190 117° Southeast 476 548 37,000  Level FlightAware ADS-B
Wed 03:57:32 AM 2.0030 102.4030 117° Southeast 476 548 37,000  Level FlightAware ADS-B
Wed 03:58:12 AM 1.9690 102.4700 117° Southeast 476 548 37,000  Level FlightAware ADS-B
Wed 03:58:52 AM 1.9350 102.5360 117° Southeast 476 548 37,000  Level FlightAware ADS-B
Wed 03:59:32 AM 1.9010 102.6030 117° Southeast 476 548 37,000 -2,850 Level FlightAware ADS-B
Wed 04:00:12 AM 1.7900 102.7920 120° Southeast 461 531 33,200 -3,600 Descending FlightAware ADS-B
Wed 04:00:57 AM 1.7400 102.8850 118° Southeast 450 518 31,900 -1,667 Descending FlightAware ADS-B
Wed 04:01:42 AM 1.7020 102.9560 118° Southeast 439 505 30,700 -1,765 Descending FlightAware ADS-B
Wed 04:02:22 AM 1.6640 103.0280 118° Southeast 433 498 29,400 -1,350 Descending FlightAware ADS-B
Wed 04:03:02 AM 1.6240 103.1000 119° Southeast 405 466 28,900 -988 Descending FlightAware ADS-B
Wed 04:03:47 AM 1.5700 103.1500 137° Southeast 395 455 28,000 -600 Descending FlightAware ADS-B
Wed 04:04:32 AM 1.5110 103.1900 146° Southeast 395 455 28,000  Level FlightAware ADS-B
Wed 04:05:12 AM 1.4590 103.2250 146° Southeast 395 455 28,000  Level FlightAware ADS-B
Wed 04:05:52 AM 1.4080 103.2590 146° Southeast 395 455 28,000  Level FlightAware ADS-B
Wed 04:06:32 AM 1.3560 103.2940 146° Southeast 395 455 28,000  Level FlightAware ADS-B
Wed 04:07:12 AM 1.3050 103.3290 146° Southeast 395 455 28,000 -1,938 Level FlightAware ADS-B
Wed 04:09:00 AM 1.3234 103.5678 86° East  Level Estimated
Wed 04:10:00 AM 1.3336 103.7005 86° East  Level Estimated
Wed 04:11:00 AM 1.3439 103.8332 86° East  Level Estimated
Wed 04:12:00 AM 1.3541 103.9658 86° East  Level Estimated
Wed 04:13:00 AM 1.3557 103.9875 86° East  Level Estimated
Wed 04:14:00 AM 1.3557 103.9875 214° Southwest  Level Estimated
Wed 04:14:32 AM 1.0960 103.9050 214° Southwest 314 361 12,500  Level FlightAware ADS-B
Wed 04:15:12 AM 1.1060 103.9610 80° East 309 356 11,700 -988 Descending FlightAware ADS-B
Wed 04:15:57 AM 1.1170 104.0250 80° East 290 334 11,100 -706 Descending FlightAware ADS-B
Wed 04:16:37 AM 1.1270 104.0760 79° East 271 312 10,700 -706 Descending FlightAware ADS-B
Wed 04:17:22 AM 1.1400 104.1270 76° East 265 305 10,100 -686 Descending FlightAware ADS-B
Wed 04:17:47 AM 1.1620 104.1510 47° Northeast 269 310 9,900 -600 Descending FlightAware ADS-B
Wed 04:18:02 AM 1.1740 104.1640 47° Northeast 269 310 9,700 -533 Descending FlightAware ADS-B
Wed 04:18:32 AM 1.1980 104.1930 50° Northeast 267 307 9,500 -436 Descending FlightAware ADS-B
Wed 04:18:57 AM 1.2190 104.2180 50° Northeast 266 306 9,300 -436 Descending FlightAware ADS-B
Wed 04:19:27 AM 1.2430 104.2450 48° Northeast 267 307 9,100 -400 Descending FlightAware ADS-B
Wed 04:19:42 AM 1.2540 104.2580 50° Northeast 268 308 9,000 -450 Descending FlightAware ADS-B
Wed 04:20:07 AM 1.2750 104.2830 50° Northeast 267 307 8,800 -450 Descending FlightAware ADS-B
Wed 04:20:22 AM 1.2880 104.2950 43° Northeast 265 305 8,700 -600 Descending FlightAware ADS-B
Wed 04:20:37 AM 1.3070 104.3000 15° North 259 298 8,500 -1,050 Descending FlightAware ADS-B
Wed 04:21:02 AM 1.3350 104.3010 North 260 299 8,000 -982 Descending FlightAware ADS-B
Wed 04:21:32 AM 1.3710 104.3030 North 252 290 7,600 -982 Descending FlightAware ADS-B
Wed 04:21:57 AM 1.4020 104.3040 North 253 291 7,100 -1,091 Descending FlightAware ADS-B
Wed 04:22:27 AM 1.4370 104.3060 North 253 291 6,600 -800 Descending FlightAware ADS-B
Wed 04:22:42 AM 1.4530 104.3040 353° North 248 285 6,500 -400 Descending FlightAware ADS-B
Wed 04:22:57 AM 1.4710 104.2990 344° North 247 284 6,400 -450 Descending FlightAware ADS-B
Wed 04:23:22 AM 1.4970 104.2910 343° North 244 281 6,200 -545 Descending FlightAware ADS-B
Wed 04:23:52 AM 1.5290 104.2820 344° North 234 269 5,900 -545 Descending FlightAware ADS-B
Wed 04:24:17 AM 1.5550 104.2740 343° North 218 251 5,700 -450 Descending FlightAware ADS-B
Wed 04:24:32 AM 1.5680 104.2680 335° Northwest 207 238 5,600 -600 Descending FlightAware ADS-B
Wed 04:24:47 AM 1.5770 104.2560 307° West 204 235 5,400 -600 Descending FlightAware ADS-B
Wed 04:25:02 AM 1.5830 104.2440 297° West 202 232 5,300 -480 Descending FlightAware ADS-B
Wed 04:25:12 AM 1.5840 104.2350 276° West 198 228 5,200 -900 Descending FlightAware ADS-B
Wed 04:25:42 AM 1.5800 104.2080 262° West 191 220 4,700 -764 Descending FlightAware ADS-B
Wed 04:26:07 AM 1.5770 104.1890 261° West 186 214 4,500 -545 Descending FlightAware ADS-B
Wed 04:26:37 AM 1.5720 104.1630 259° West 185 213 4,200 -533 Descending FlightAware ADS-B
Wed 04:26:52 AM 1.5700 104.1500 261° West 186 214 4,100 -343 Descending FlightAware ADS-B
Wed 04:27:12 AM 1.5670 104.1350 259° West 186 214 4,000 -133 Descending FlightAware ADS-B
Wed 04:27:37 AM 1.5620 104.1150 256° West 186 214 4,000 -720 Level FlightAware ADS-B
Wed 04:28:02 AM 1.5380 104.0980 215° Southwest 192 221 3,400 -982 Descending FlightAware ADS-B
Wed 04:28:32 AM 1.5200 104.0790 227° Southwest 190 219 3,100 -600 Descending FlightAware ADS-B
Wed 04:28:52 AM 1.5100 104.0680 228° Southwest 194 223 2,900 -655 Descending FlightAware ADS-B
Wed 04:29:27 AM 1.4870 104.0430 227° Southwest 192 221 2,500 -700 Descending FlightAware ADS-B
Wed 04:29:52 AM 1.4700 104.0290 219° Southwest 169 194 2,200 -764 Descending FlightAware ADS-B
Wed 04:30:22 AM 1.4500 104.0200 204° Southwest 154 177 1,800 -800 Descending FlightAware ADS-B
Wed 04:30:52 AM 1.4300 104.0120 202° Southwest 144 166 1,400 -800 Descending FlightAware ADS-B
Wed 04:31:07 AM 1.4210 104.0080 204° Southwest 146 168 1,200 -750 Descending FlightAware ADS-B
Wed 04:31:32 AM 1.4060 104.0010 205° Southwest 147 169 900 -764 Descending FlightAware ADS-B
Wed 04:32:02 AM 1.3870 103.9940 200° South 144 166 500 -840 Descending FlightAware ADS-B
Wed 04:32:22 AM 1.3750 103.9880 207° Southwest 151 174 200 -900 Descending FlightAware ADS-B
Wed 04:36:00 AM 1.3557 103.9875 72° East  Level Estimated

Login

Don't have an account? Register now (free) for customized features, flight alerts, and more!